createdAt,value
2022-08-09T00:00:59.069Z,100358.66
2022-08-09T00:04:06.221Z,100359.16
2022-08-09T00:06:22.778Z,100364.91
2022-08-09T00:08:52.323Z,100365.87
2022-08-09T00:11:56.829Z,100359.28
2022-08-09T00:14:17.381Z,100359.63
2022-08-09T00:16:57.004Z,100364.06
2022-08-09T00:19:27.662Z,100361.75
2022-08-09T00:21:57.120Z,100362.25
2022-08-09T00:24:27.299Z,100341.16
2022-08-09T00:26:57.381Z,100347.62
2022-08-09T00:29:39.304Z,100347.47
2022-08-09T00:32:26.641Z,100346.56
2022-08-09T00:34:56.538Z,100347.69
2022-08-09T00:37:27.067Z,100346.28
2022-08-09T00:40:14.008Z,100357.16
2022-08-09T00:44:13.010Z,100354.03
2022-08-09T00:45:35.266Z,100348.56
2022-08-09T00:48:04.820Z,100361.41
2022-08-09T00:50:34.040Z,100359.56
2022-08-09T00:53:10.486Z,100360.78
2022-08-09T00:56:04.537Z,100358.47
2022-08-09T00:58:31.650Z,100359.94
2022-08-09T01:01:00.412Z,100361.63
2022-08-09T01:03:45.571Z,100356.66
2022-08-09T01:06:54.542Z,100359.56
2022-08-09T01:09:36.887Z,100363.22
2022-08-09T01:12:41.047Z,100354.34
2022-08-09T01:15:16.813Z,100361.59
2022-08-09T01:17:57.623Z,100349.81
2022-08-09T01:20:45.383Z,100348.44
2022-08-09T01:24:02.903Z,100343.53
2022-08-09T01:26:54.093Z,100333.78
2022-08-09T01:29:55.775Z,100347.97
2022-08-09T01:32:47.530Z,100340.59
2022-08-09T01:35:38.725Z,100349.22
2022-08-09T01:38:15.414Z,100342.84
2022-08-09T01:41:02.954Z,100324.13
2022-08-09T01:43:42.018Z,100329.72
2022-08-09T01:46:25.013Z,100331.63
2022-08-09T01:49:10.631Z,100336.56
2022-08-09T01:51:54.195Z,100326.19
2022-08-09T01:54:45.988Z,100323.91
2022-08-09T01:57:23.913Z,100321.97
2022-08-09T02:00:00.325Z,100315.78
2022-08-09T02:02:43.545Z,100310.44
2022-08-09T02:05:16.192Z,100320.78
2022-08-09T02:08:38.948Z,100313.59
2022-08-09T02:10:40.151Z,100317.66
2022-08-09T02:13:13.693Z,100308.94
2022-08-09T02:15:50.284Z,100316.97
2022-08-09T02:18:25.367Z,100316.88
2022-08-09T02:21:03.166Z,100321.34
2022-08-09T02:23:40.128Z,100318.91
2022-08-09T02:26:25.094Z,100310.72
2022-08-09T02:28:59.658Z,100321.25
2022-08-09T02:31:36.189Z,100321.87
2022-08-09T02:34:13.602Z,100321.78
2022-08-09T02:36:57.087Z,100323.62
2022-08-09T02:39:41.806Z,100320.31
2022-08-09T02:42:18.239Z,100319.72
2022-08-09T02:44:50.507Z,100318.16
2022-08-09T02:47:21.509Z,100314.47
2022-08-09T02:50:04.983Z,100310.94
2022-08-09T02:52:56.275Z,100308.06
2022-08-09T02:55:46.579Z,100308.16
2022-08-09T02:58:36.009Z,100295.13
2022-08-09T03:01:10.879Z,100309.38
2022-08-09T03:04:17.193Z,100305.69
2022-08-09T03:06:35.050Z,100311.84
2022-08-09T03:09:07.893Z,100310.94
2022-08-09T03:12:10.389Z,100306.84
2022-08-09T03:14:29.632Z,100302.66
2022-08-09T03:17:01.908Z,100310.38
2022-08-09T03:19:58.370Z,100305.16
2022-08-09T03:22:25.380Z,100311.13
2022-08-09T03:25:26.775Z,100312.84
2022-08-09T03:27:51.902Z,100312.38
2022-08-09T03:30:29.847Z,100312.19
2022-08-09T03:33:17.768Z,100311.34
2022-08-09T03:36:14.096Z,100311.50
2022-08-09T03:38:42.153Z,100303.50
2022-08-09T03:41:16.621Z,100310.81
2022-08-09T03:44:03.265Z,100314.66
2022-08-09T03:46:36.925Z,100308.59
2022-08-09T03:49:08.473Z,100313.12
2022-08-09T03:51:55.297Z,100311.31
2022-08-09T03:54:32.226Z,100309.69
2022-08-09T03:57:04.538Z,100309.09
2022-08-09T03:59:56.030Z,100309.97
2022-08-09T04:02:28.223Z,100299.62
2022-08-09T04:05:05.689Z,100309.34
2022-08-09T04:07:52.725Z,100312.03
2022-08-09T04:10:28.434Z,100314.84
2022-08-09T04:13:11.340Z,100315.94
2022-08-09T04:16:18.697Z,100313.75
2022-08-09T04:18:28.937Z,100321.75
2022-08-09T04:20:57.306Z,100316.81
2022-08-09T04:23:25.872Z,100317.75
2022-08-09T04:25:55.070Z,100317.09
2022-08-09T04:28:33.102Z,100309.69
2022-08-09T04:31:09.037Z,100321.75
2022-08-09T04:33:51.516Z,100316.81
2022-08-09T04:36:24.589Z,100323.91
2022-08-09T04:38:59.994Z,100325.88
2022-08-09T04:41:33.186Z,100320.31
2022-08-09T04:44:11.216Z,100322.34
2022-08-09T04:46:59.993Z,100322.88
2022-08-09T04:49:54.816Z,100332.69
2022-08-09T04:52:28.263Z,100336.41
2022-08-09T04:54:59.609Z,100328.81
2022-08-09T04:57:58.969Z,100332.59
2022-08-09T05:00:17.346Z,100335.50
2022-08-09T05:02:51.675Z,100332.34
2022-08-09T05:05:32.353Z,100336.81
2022-08-09T05:08:14.093Z,100334.50
2022-08-09T05:10:44.411Z,100337.47
2022-08-09T05:13:13.068Z,100340.72
2022-08-09T05:15:52.126Z,100339.78
2022-08-09T05:18:39.192Z,100345.16
2022-08-09T05:21:22.848Z,100346.81
2022-08-09T05:24:00.577Z,100345.19
2022-08-09T05:26:36.506Z,100344.81
2022-08-09T05:29:17.530Z,100343.59
2022-08-09T05:31:56.695Z,100337.56
2022-08-09T05:34:32.509Z,100351.28
2022-08-09T05:37:06.887Z,100345.44
2022-08-09T05:39:43.787Z,100348.50
2022-08-09T05:42:21.298Z,100353.84
2022-08-09T05:44:54.887Z,100356.69
2022-08-09T05:47:24.745Z,100369.28
2022-08-09T05:50:35.108Z,100370.69
2022-08-09T05:52:44.343Z,100367.06
2022-08-09T05:55:20.723Z,100363.84
2022-08-09T05:57:56.860Z,100369.31
2022-08-09T06:00:28.851Z,100366.09
2022-08-09T06:03:02.661Z,100372.47
2022-08-09T06:05:56.883Z,100364.34
2022-08-09T06:08:24.504Z,100365.78
2022-08-09T06:10:58.115Z,100363.78
2022-08-09T06:13:28.584Z,100358.28
2022-08-09T06:16:04.805Z,100364.44
2022-08-09T06:18:34.864Z,100362.81
2022-08-09T06:21:04.441Z,100365.66
2022-08-09T06:23:58.785Z,100365.66
2022-08-09T06:26:28.664Z,100364.22
2022-08-09T06:29:00.190Z,100360.50
2022-08-09T06:31:30.660Z,100361.94
2022-08-09T06:34:00.026Z,100364.56
2022-08-09T06:36:29.886Z,100360.47
2022-08-09T06:38:58.346Z,100367.97
2022-08-09T06:42:07.687Z,100365.28
2022-08-09T06:44:18.390Z,100363.41
2022-08-09T06:46:49.740Z,100361.53
2022-08-09T06:49:44.613Z,100365.16
2022-08-09T06:52:15.882Z,100370.62
2022-08-09T06:54:44.332Z,100369.53
2022-08-09T06:57:13.477Z,100365.22
2022-08-09T07:00:50.248Z,100363.31
2022-08-09T07:02:32.189Z,100366.28
2022-08-09T07:05:01.052Z,100367.69
2022-08-09T07:08:00.331Z,100363.56
2022-08-09T07:10:29.457Z,100360.91
2022-08-09T07:12:59.922Z,100368.06
2022-08-09T07:16:38.603Z,100370.88
2022-08-09T07:18:17.033Z,100364.09
2022-08-09T07:20:47.800Z,100360.47
2022-08-09T07:23:19.097Z,100364.47
2022-08-09T07:25:52.548Z,100365.41
2022-08-09T07:28:34.669Z,100365.63
2022-08-09T07:31:04.990Z,100359.22
2022-08-09T07:33:52.938Z,100364.31
2022-08-09T07:36:22.280Z,100356.47
2022-08-09T07:39:00.369Z,100359.97
2022-08-09T07:41:33.002Z,100363.78
2022-08-09T07:44:06.934Z,100352.84
2022-08-09T07:46:37.373Z,100361.34
2022-08-09T07:49:08.353Z,100358.22
2022-08-09T07:52:04.614Z,100365.34
2022-08-09T07:54:32.214Z,100369.09
2022-08-09T07:57:01.004Z,100362.34
2022-08-09T07:59:34.395Z,100370.84
2022-08-09T08:02:19.072Z,100367.66
2022-08-09T08:04:49.229Z,100375.13
2022-08-09T08:08:42.766Z,100373.69
2022-08-09T08:10:11.316Z,100366.88
2022-08-09T08:12:45.110Z,100368.94
2022-08-09T08:15:24.346Z,100360.62
2022-08-09T08:17:57.887Z,100369.63
2022-08-09T08:20:30.458Z,100367.62
2022-08-09T08:23:16.028Z,100366.22
2022-08-09T08:25:49.806Z,100366.41
2022-08-09T08:28:32.087Z,100369.00
2022-08-09T08:31:14.164Z,100367.97
2022-08-09T08:33:53.723Z,100367.53
2022-08-09T08:36:29.303Z,100371.44
2022-08-09T08:39:00.062Z,100367.44
2022-08-09T08:41:41.816Z,100367.94
2022-08-09T08:44:23.132Z,100369.94
2022-08-09T08:47:04.428Z,100373.72
2022-08-09T08:49:47.676Z,100367.19
2022-08-09T08:55:08.278Z,100366.31
2022-08-09T08:57:37.898Z,100358.59
2022-08-09T09:00:16.772Z,100367.94
2022-08-09T09:02:52.946Z,100355.56
2022-08-09T09:05:32.914Z,100361.25
2022-08-09T09:08:29.351Z,100358.25
2022-08-09T09:11:05.461Z,100357.19
2022-08-09T09:13:55.903Z,100354.66
2022-08-09T09:16:34.076Z,100357.72
2022-08-09T09:22:15.958Z,100349.53
2022-08-09T09:24:55.545Z,100347.31
2022-08-09T09:28:06.116Z,100352.03
2022-08-09T09:30:37.996Z,100350.31
2022-08-09T09:33:14.394Z,100351.94
2022-08-09T09:36:01.387Z,100343.56
2022-08-09T09:38:40.227Z,100349.66
2022-08-09T09:41:10.794Z,100345.13
2022-08-09T09:43:41.238Z,100342.09
2022-08-09T09:46:43.034Z,100353.41
2022-08-09T09:49:32.157Z,100345.69
2022-08-09T09:52:33.710Z,100351.78
2022-08-09T09:55:27.662Z,100354.44
2022-08-09T09:58:16.155Z,100354.06
2022-08-09T10:00:58.782Z,100356.09
2022-08-09T10:03:57.524Z,100352.63
2022-08-09T10:06:43.474Z,100352.66
2022-08-09T10:09:22.279Z,100353.00
2022-08-09T10:12:14.403Z,100349.91
2022-08-09T10:14:49.050Z,100348.22
2022-08-09T10:17:39.836Z,100351.19
2022-08-09T10:20:32.624Z,100347.28
2022-08-09T10:23:24.981Z,100342.84
2022-08-09T10:26:06.837Z,100340.94
2022-08-09T10:28:41.383Z,100335.56
2022-08-09T10:34:10.035Z,100334.72
2022-08-09T10:36:56.701Z,100337.31
2022-08-09T10:39:28.438Z,100330.66
2022-08-09T10:41:57.477Z,100334.47
2022-08-09T10:44:30.458Z,100327.50
2022-08-09T10:47:04.143Z,100325.31
2022-08-09T10:50:30.766Z,100327.50
2022-08-09T10:53:05.274Z,100337.56
2022-08-09T10:55:55.668Z,100319.03
2022-08-09T10:58:34.726Z,100327.12
2022-08-09T11:03:02.734Z,100323.62
2022-08-09T11:04:28.158Z,100322.22
2022-08-09T11:07:00.953Z,100329.13
2022-08-09T11:09:41.437Z,100325.16
2022-08-09T11:12:20.034Z,100326.03
2022-08-09T11:14:57.393Z,100326.81
2022-08-09T11:17:26.280Z,100323.75
2022-08-09T11:20:19.844Z,100314.00
2022-08-09T11:22:56.923Z,100317.16
2022-08-09T11:25:44.975Z,100313.56
2022-08-09T11:28:34.528Z,100309.53
2022-08-09T11:31:34.099Z,100312.63
2022-08-09T11:34:10.283Z,100307.28
2022-08-09T11:36:44.294Z,100304.81
2022-08-09T11:39:12.573Z,100301.13
2022-08-09T11:41:45.415Z,100307.34
2022-08-09T11:44:13.629Z,100297.44
2022-08-09T11:46:54.066Z,100304.16
2022-08-09T11:50:53.772Z,100302.59
2022-08-09T11:53:57.816Z,100302.81
2022-08-09T11:56:02.781Z,100303.47
2022-08-09T11:58:33.617Z,100301.56
2022-08-09T12:01:15.370Z,100299.66
2022-08-09T12:04:20.908Z,100302.09
2022-08-09T12:06:57.141Z,100301.37
2022-08-09T12:09:33.600Z,100294.13
2022-08-09T12:12:13.173Z,100301.53
2022-08-09T12:15:07.590Z,100297.28
2022-08-09T12:17:43.298Z,100289.72
2022-08-09T12:20:21.786Z,100295.53
2022-08-09T12:22:56.392Z,100289.28
2022-08-09T12:25:36.016Z,100295.59
2022-08-09T12:29:15.497Z,100289.81
2022-08-09T12:31:02.992Z,100280.72
2022-08-09T12:33:58.604Z,100280.47
2022-08-09T12:36:32.031Z,100284.00
2022-08-09T12:39:02.475Z,100276.16
2022-08-09T12:41:39.117Z,100277.25
2022-08-09T12:44:10.053Z,100271.69
2022-08-09T12:46:49.083Z,100272.44
2022-08-09T12:49:20.950Z,100270.13
2022-08-09T12:52:02.567Z,100265.97
2022-08-09T12:56:12.209Z,100264.31
2022-08-09T12:57:47.056Z,100265.06
2022-08-09T13:00:18.424Z,100264.84
2022-08-09T13:02:59.974Z,100262.69
2022-08-09T13:05:51.512Z,100263.13
2022-08-09T13:08:40.158Z,100262.03
2022-08-09T13:11:22.832Z,100266.84
2022-08-09T13:14:37.041Z,100260.66
2022-08-09T13:16:53.533Z,100255.47
2022-08-09T13:20:09.413Z,100255.50
2022-08-09T13:22:36.418Z,100255.31
2022-08-09T13:25:07.652Z,100258.88
2022-08-09T13:27:39.411Z,100256.22
2022-08-09T13:30:49.173Z,100253.69
2022-08-09T13:33:04.681Z,100252.62
2022-08-09T13:35:34.781Z,100252.84
2022-08-09T13:38:55.937Z,100254.00
2022-08-09T13:41:46.924Z,100250.28
2022-08-09T13:43:58.160Z,100254.28
2022-08-09T13:47:16.103Z,100250.78
2022-08-09T13:49:18.499Z,100253.72
2022-08-09T13:52:00.554Z,100248.84
2022-08-09T13:54:30.401Z,100247.47
2022-08-09T13:56:58.981Z,100248.59
2022-08-09T13:59:27.453Z,100245.34
2022-08-09T14:02:10.456Z,100243.22
2022-08-09T14:04:38.954Z,100248.00
2022-08-09T14:07:17.773Z,100248.22
2022-08-09T14:09:47.122Z,100244.09
2022-08-09T14:12:21.575Z,100250.59
2022-08-09T14:14:53.664Z,100249.41
2022-08-09T14:17:22.713Z,100247.66
2022-08-09T14:19:52.636Z,100247.75
2022-08-09T14:22:21.971Z,100241.28
2022-08-09T14:24:54.020Z,100242.12
2022-08-09T14:27:22.888Z,100249.06
2022-08-09T14:30:34.863Z,100247.47
2022-08-09T14:32:43.998Z,100250.00
2022-08-09T14:35:12.315Z,100240.44
2022-08-09T14:38:01.330Z,100246.03
2022-08-09T14:41:01.254Z,100241.25
2022-08-09T14:43:18.716Z,100240.47
2022-08-09T14:46:54.808Z,100250.16
2022-08-09T14:48:35.870Z,100238.91
2022-08-09T14:51:05.371Z,100242.88
2022-08-09T14:53:33.533Z,100244.28
2022-08-09T14:56:08.524Z,100236.28
2022-08-09T14:58:44.024Z,100234.94
2022-08-09T15:01:13.179Z,100234.19
2022-08-09T15:03:42.130Z,100234.75
2022-08-09T15:06:14.810Z,100231.78
2022-08-09T15:08:43.265Z,100230.97
2022-08-09T15:11:11.489Z,100227.75
2022-08-09T15:13:56.119Z,100232.78
2022-08-09T15:16:30.401Z,100228.84
2022-08-09T15:19:02.486Z,100229.69
2022-08-09T15:21:55.526Z,100223.81
2022-08-09T15:24:27.562Z,100227.59
2022-08-09T15:26:56.185Z,100222.88
2022-08-09T15:30:58.205Z,100214.84
2022-08-09T15:32:29.439Z,100220.44
2022-08-09T15:35:18.395Z,100211.88
2022-08-09T15:38:10.985Z,100213.78
2022-08-09T15:40:43.933Z,100214.56
2022-08-09T15:43:13.711Z,100211.53
2022-08-09T15:46:07.616Z,100207.44
2022-08-09T15:48:32.062Z,100215.94
2022-08-09T15:51:01.325Z,100211.62
2022-08-09T15:54:05.154Z,100223.84
2022-08-09T15:56:28.933Z,100214.72
2022-08-09T15:58:59.061Z,100217.84
2022-08-09T16:01:27.596Z,100216.28
2022-08-09T16:04:00.065Z,100225.34
2022-08-09T16:06:35.764Z,100223.16
2022-08-09T16:09:06.563Z,100223.44
2022-08-09T16:11:34.894Z,100216.13
2022-08-09T16:14:06.880Z,100219.84
2022-08-09T16:16:38.048Z,100220.37
2022-08-09T16:19:13.536Z,100220.37
2022-08-09T16:21:52.013Z,100212.25
2022-08-09T16:24:33.251Z,100220.28
2022-08-09T16:27:05.192Z,100211.97
2022-08-09T16:29:38.014Z,100223.97
2022-08-09T16:32:34.105Z,100225.59
2022-08-09T16:35:03.250Z,100229.63
2022-08-09T16:37:53.405Z,100222.06
2022-08-09T16:40:40.280Z,100227.88
2022-08-09T16:43:09.906Z,100230.47
2022-08-09T16:45:43.756Z,100233.31
2022-08-09T16:48:41.797Z,100232.31
2022-08-09T16:51:07.637Z,100235.62
2022-08-09T16:53:37.300Z,100230.19
2022-08-09T16:56:10.297Z,100239.41
2022-08-09T16:58:42.556Z,100229.53
2022-08-09T17:01:19.431Z,100236.94
2022-08-09T17:03:55.208Z,100235.56
2022-08-09T17:06:31.813Z,100240.03
2022-08-09T17:09:16.194Z,100245.78
2022-08-09T17:11:52.448Z,100244.66
2022-08-09T17:14:27.915Z,100238.66
2022-08-09T17:16:59.512Z,100245.56
2022-08-09T17:20:05.091Z,100240.25
2022-08-09T17:22:25.111Z,100237.53
2022-08-09T17:25:10.239Z,100239.81
2022-08-09T17:27:49.128Z,100242.09
2022-08-09T17:30:19.789Z,100234.50
2022-08-09T17:32:48.550Z,100243.41
2022-08-09T17:35:16.948Z,100235.56
2022-08-09T17:38:12.452Z,100242.44
2022-08-09T17:40:34.995Z,100244.34
2022-08-09T17:43:32.763Z,100248.53
2022-08-09T17:46:03.389Z,100237.91
2022-08-09T17:48:46.490Z,100248.28
2022-08-09T17:51:21.660Z,100255.78
2022-08-09T17:53:54.926Z,100255.94
2022-08-09T17:56:35.757Z,100266.31
2022-08-09T17:59:09.104Z,100263.41
2022-08-09T18:02:12.792Z,100265.56
2022-08-09T18:04:29.874Z,100261.75
2022-08-09T18:06:59.237Z,100275.84
2022-08-09T18:09:40.688Z,100272.94
2022-08-09T18:12:20.177Z,100270.91
2022-08-09T18:14:54.969Z,100275.47
2022-08-09T18:17:27.599Z,100298.44
2022-08-09T18:20:56.930Z,100288.37
2022-08-09T18:23:07.403Z,100306.72
2022-08-09T18:25:51.219Z,100307.09
2022-08-09T18:30:38.264Z,100307.12
2022-08-09T18:31:11.964Z,100314.78
2022-08-09T18:33:40.781Z,100325.91
2022-08-09T18:36:14.395Z,100325.00
2022-08-09T18:39:00.918Z,100327.31
2022-08-09T18:41:34.350Z,100339.22
2022-08-09T18:44:13.295Z,100341.78
2022-08-09T18:46:47.708Z,100353.38
2022-08-09T18:49:27.369Z,100368.81
2022-08-09T18:52:00.062Z,100368.09
2022-08-09T18:54:30.150Z,100371.91
2022-08-09T18:57:06.000Z,100378.41
2022-08-09T18:59:36.998Z,100379.22
2022-08-09T19:02:07.309Z,100388.47
2022-08-09T19:04:35.986Z,100402.63
2022-08-09T19:07:05.322Z,100406.56
2022-08-09T19:10:15.747Z,100395.41
2022-08-09T19:12:25.686Z,100404.56
2022-08-09T19:14:54.273Z,100414.22
2022-08-09T19:17:22.498Z,100426.81
2022-08-09T19:19:51.304Z,100413.94
2022-08-09T19:22:28.680Z,100414.69
2022-08-09T19:25:10.025Z,100411.75
2022-08-09T19:27:45.848Z,100412.00
2022-08-09T19:30:23.167Z,100432.12
2022-08-09T19:32:56.530Z,100432.00
2022-08-09T19:35:28.885Z,100450.28
2022-08-09T19:38:16.944Z,100448.81
2022-08-09T19:40:46.245Z,100443.50
2022-08-09T19:43:58.114Z,100456.53
2022-08-09T19:46:14.367Z,100450.91
2022-08-09T19:49:01.036Z,100454.63
2022-08-09T19:51:31.795Z,100457.94
2022-08-09T19:54:06.866Z,100467.03
2022-08-09T19:56:39.847Z,100470.84
2022-08-09T19:59:39.534Z,100464.34
2022-08-09T20:02:08.019Z,100463.97
2022-08-09T20:04:53.032Z,100460.72
2022-08-09T20:07:57.111Z,100467.56
2022-08-09T20:10:17.824Z,100478.13
2022-08-09T20:12:51.948Z,100471.50
2022-08-09T20:16:32.806Z,100471.56
2022-08-09T20:18:10.524Z,100472.56
2022-08-09T20:20:40.900Z,100481.59
2022-08-09T20:23:09.786Z,100491.41
2022-08-09T20:25:38.205Z,100485.28
2022-08-09T20:28:24.452Z,100480.84
2022-08-09T20:31:04.802Z,100494.97
2022-08-09T20:33:38.946Z,100495.41
2022-08-09T20:36:10.602Z,100495.47
2022-08-09T20:41:34.986Z,100496.69
2022-08-09T20:44:10.550Z,100494.06
2022-08-09T20:46:42.663Z,100490.84
2022-08-09T20:49:15.809Z,100496.94
2022-08-09T20:51:50.667Z,100491.25
2022-08-09T20:54:19.481Z,100491.44
2022-08-09T20:56:49.862Z,100493.12
2022-08-09T20:59:50.166Z,100495.97
2022-08-09T21:02:17.803Z,100496.81
2022-08-09T21:05:56.646Z,100506.41
2022-08-09T21:07:40.197Z,100504.00
2022-08-09T21:10:11.892Z,100502.53
2022-08-09T21:12:40.332Z,100504.41
2022-08-09T21:15:12.437Z,100513.81
2022-08-09T21:18:21.742Z,100515.47
2022-08-09T21:20:32.216Z,100512.19
2022-08-09T21:23:00.953Z,100514.47
2022-08-09T21:25:55.962Z,100510.63
2022-08-09T21:28:34.930Z,100516.13
2022-08-09T21:31:17.959Z,100517.59
2022-08-09T21:33:51.303Z,100533.28
2022-08-09T21:36:27.842Z,100528.00
2022-08-09T21:38:59.559Z,100517.75
2022-08-09T21:42:05.478Z,100520.25
2022-08-09T21:44:34.367Z,100530.19
2022-08-09T21:47:08.851Z,100528.78
2022-08-09T21:49:40.587Z,100525.72
2022-08-09T21:52:16.499Z,100527.53
2022-08-09T21:55:03.521Z,100525.53
2022-08-09T21:57:39.635Z,100518.78
2022-08-09T22:00:33.201Z,100519.59
2022-08-09T22:03:12.576Z,100523.69
2022-08-09T22:05:51.147Z,100521.81
2022-08-09T22:08:22.917Z,100518.16
2022-08-09T22:11:50.167Z,100518.16
2022-08-09T22:13:44.544Z,100526.97
2022-08-09T22:16:12.868Z,100528.63
2022-08-09T22:18:54.553Z,100528.00
2022-08-09T22:21:44.736Z,100524.13
2022-08-09T22:24:16.780Z,100514.59
2022-08-09T22:26:51.835Z,100521.03
2022-08-09T22:29:28.971Z,100524.56
2022-08-09T22:32:02.012Z,100513.16
2022-08-09T22:34:30.577Z,100510.50
2022-08-09T22:36:59.559Z,100505.00
2022-08-09T22:39:57.936Z,100507.22
2022-08-09T22:42:20.752Z,100508.88
2022-08-09T22:45:11.568Z,100505.00
2022-08-09T22:48:15.662Z,100498.72
2022-08-09T22:50:30.923Z,100502.38
2022-08-09T22:53:03.771Z,100499.72
2022-08-09T22:56:06.366Z,100506.09
2022-08-09T22:58:32.107Z,100500.12
2022-08-09T23:01:04.220Z,100502.56
2022-08-09T23:04:05.485Z,100498.94
2022-08-09T23:06:35.118Z,100497.72
2022-08-09T23:09:07.771Z,100500.75
2022-08-09T23:11:36.460Z,100490.34
2022-08-09T23:14:09.995Z,100497.31
2022-08-09T23:16:45.752Z,100501.97
2022-08-09T23:19:13.945Z,100500.78
2022-08-09T23:21:42.352Z,100494.44
2022-08-09T23:24:11.567Z,100496.88
2022-08-09T23:26:40.562Z,100490.97
2022-08-09T23:29:13.483Z,100496.09
2022-08-09T23:31:42.204Z,100484.28
2022-08-09T23:34:10.575Z,100490.78
2022-08-09T23:36:38.860Z,100484.44
2022-08-09T23:39:08.194Z,100491.78
2022-08-09T23:41:36.622Z,100481.00
2022-08-09T23:44:05.104Z,100485.06
2022-08-09T23:46:33.765Z,100485.69
2022-08-09T23:49:02.214Z,100486.28
2022-08-09T23:51:30.453Z,100491.78
2022-08-09T23:54:02.371Z,100491.16
2022-08-09T23:56:52.571Z,100498.94
2022-08-09T23:59:24.339Z,100501.78
